Sevilla, España

3:15 PM CET en Enero 25, 2015 (GMT +0100)
San Pablo | Change Station
CLOSE
Current Station
Aeropuerto
Location: Sevilla,
Altura: 102 ft
Estaciones meteorológicas cercanas

Alt 102 ft 37.42 °N, 5.89 °W | Updated 15 minutes ago

Clear
Despejado
61 ° F
Sensación térmica 61 ° F
N
10
Viento Variable Viento desde NE

Hoy
Alta -- | Baja -- ° F
--% Posibilidad de precipitaciones
Ayer
Alta -- | Baja -- ° F
Precip. -- pul
8:32 AM 6:39 PM
Creciente, 32% visible
Presión 30.27 pul
Visibilidad -9999.0 Millas
Nubes
Punto de rocío 36 ° F
Humedad 39%
Precipitaciones 0.00 pul
Espesor de la nieve No disponible.
UV No disponible.
Polen No disponible.
Calidad del aire No disponible.
Flu Activity No disponible.
METAR LEZL 251400Z 05009KT CAVOK 16/02 Q1025 NOSIG

More Conditions Fewer Conditions

Presión 30.27 pul
Visibilidad -9999.0 Millas
Nubes
Punto de rocío 36 ° F
Humedad 39%
Precipitaciones 0.00 pul
Espesor de la nieve No disponible.
UV No disponible.
Polen No disponible.
Calidad del aire No disponible.
Flu Activity No disponible.
METAR LEZL 251400Z 05009KT CAVOK 16/02 Q1025 NOSIG

More Conditions Fewer Conditions

10-Day Weather Forecast

Almanac

Astronomía

Jan. 25, 2015 Salida Puesta
Hora real
Crepúsculo civil
Crepúsculo náutico
Crepúsculo astronómico
Luna
Horas de luz
Horas de luz
Tomorrow will be .
, % of the Moon is Illuminated

Extremos de hoy

Máximos del país Bajas del país

Community

WunderPhotos

Upload Photos

1,789,893 ¡fotos cargadas!

WunderBlogs® & News

Nearby

Calidad del aire

  Calidad del aire Índice AQ Contaminante
Not available.

Grosos de nieve

Estación Profundido Altura

Actividad de terremotos

Ciudad Distance Mag. Tiempo y dato
Magnitud mínima muestra es 2,5.

Temperaturas de aguas costeras

Lugar Temperatura

Estaciones meteorológicas cercanas